createdAt,value
2023-04-22T00:02:01.756Z,7.33
2023-04-22T00:04:31.729Z,6.63
2023-04-22T00:07:00.044Z,7.83
2023-04-22T00:09:28.226Z,7.40
2023-04-22T00:11:56.665Z,7.90
2023-04-22T00:14:24.861Z,10.43
2023-04-22T00:16:53.156Z,8.67
2023-04-22T00:19:21.797Z,7.70
2023-04-22T00:21:51.590Z,7.90
2023-04-22T00:24:19.773Z,7.87
2023-04-22T00:26:48.021Z,8.13
2023-04-22T00:29:16.247Z,8.20
2023-04-22T00:31:44.439Z,7.40
2023-04-22T00:34:12.845Z,7.47
2023-04-22T00:36:41.050Z,8.93
2023-04-22T00:39:10.652Z,9.03
2023-04-22T00:41:38.826Z,7.60
2023-04-22T00:44:07.268Z,7.93
2023-04-22T00:46:36.530Z,7.50
2023-04-22T00:49:04.767Z,7.73
2023-04-22T00:51:32.981Z,8.53
2023-04-22T00:54:01.810Z,10.23
2023-04-22T00:56:31.885Z,7.27
2023-04-22T00:59:00.636Z,7.63
2023-04-22T01:01:29.072Z,8.13
2023-04-22T01:03:58.274Z,8.53
2023-04-22T01:06:26.821Z,7.40
2023-04-22T01:08:55.670Z,7.17
2023-04-22T01:11:23.884Z,7.50
2023-04-22T01:13:53.768Z,7.20
2023-04-22T01:16:22.235Z,7.53
2023-04-22T01:18:50.943Z,7.90
2023-04-22T01:21:19.460Z,8.20
2023-04-22T01:23:49.110Z,9.17
2023-04-22T01:26:17.289Z,8.10
2023-04-22T01:28:45.523Z,8.80
2023-04-22T01:31:13.877Z,7.77
2023-04-22T01:33:42.156Z,7.37
2023-04-22T01:36:12.379Z,7.40
2023-04-22T01:38:41.358Z,7.60
2023-04-22T01:41:11.059Z,10.33
2023-04-22T01:43:40.311Z,7.97
2023-04-22T01:46:09.221Z,7.70
2023-04-22T01:48:37.414Z,8.10
2023-04-22T01:51:05.769Z,7.90
2023-04-22T01:53:33.969Z,9.00
2023-04-22T01:56:02.162Z,8.07
2023-04-22T01:58:32.233Z,8.00
2023-04-22T02:01:00.463Z,7.70
2023-04-22T02:03:28.835Z,7.80
2023-04-22T02:05:57.118Z,8.90
2023-04-22T02:08:25.306Z,7.50
2023-04-22T02:10:53.640Z,8.50
2023-04-22T02:13:21.788Z,7.93
2023-04-22T02:15:51.522Z,7.93
2023-04-22T02:18:20.550Z,7.97
2023-04-22T02:20:48.718Z,8.60
2023-04-22T02:23:16.967Z,8.10
2023-04-22T02:25:50.418Z,10.93
2023-04-22T02:28:19.101Z,7.33
2023-04-22T02:30:47.534Z,6.93
2023-04-22T02:33:17.072Z,7.43
2023-04-22T02:35:45.293Z,7.70
2023-04-22T02:38:13.509Z,7.53
2023-04-22T02:40:41.851Z,7.20
2023-04-22T02:43:10.036Z,7.03
2023-04-22T02:45:38.646Z,7.20
2023-04-22T02:48:06.969Z,7.37
2023-04-22T02:50:36.540Z,7.13
2023-04-22T02:53:04.728Z,6.73
2023-04-22T02:55:32.918Z,6.80
2023-04-22T02:58:01.089Z,6.83
2023-04-22T03:00:29.472Z,6.87
2023-04-22T03:02:57.918Z,6.90
2023-04-22T03:05:26.151Z,6.13
2023-04-22T03:07:55.866Z,6.67
2023-04-22T03:10:24.087Z,6.67
2023-04-22T03:12:52.386Z,6.73
2023-04-22T03:15:21.718Z,6.60
2023-04-22T03:17:50.531Z,7.73
2023-04-22T03:20:19.012Z,8.40
2023-04-22T03:22:47.210Z,8.23
2023-04-22T03:25:16.744Z,9.23
2023-04-22T03:27:44.990Z,8.50
2023-04-22T03:30:13.498Z,8.07
2023-04-22T03:32:41.789Z,8.57
2023-04-22T03:35:10.458Z,7.97
2023-04-22T03:37:38.706Z,8.07
2023-04-22T03:40:08.136Z,8.17
2023-04-22T03:42:37.660Z,8.13
2023-04-22T03:45:06.190Z,8.37
2023-04-22T03:47:34.373Z,8.33
2023-04-22T03:50:02.753Z,7.57
2023-04-22T03:52:30.954Z,8.00
2023-04-22T03:54:59.117Z,7.70
2023-04-22T03:57:27.318Z,8.10
2023-04-22T03:59:56.840Z,7.53
2023-04-22T04:02:25.074Z,7.60
2023-04-22T04:04:53.738Z,7.53
2023-04-22T04:07:22.080Z,10.40
2023-04-22T04:09:50.453Z,8.00
2023-04-22T04:12:18.741Z,7.80
2023-04-22T04:14:46.893Z,8.53
2023-04-22T04:17:16.584Z,7.57
2023-04-22T04:19:44.774Z,8.73
2023-04-22T04:22:13.474Z,7.93
2023-04-22T04:24:42.381Z,8.43
2023-04-22T04:27:11.877Z,7.97
2023-04-22T04:29:41.386Z,8.57
2023-04-22T04:32:10.268Z,7.77
2023-04-22T04:34:39.870Z,7.93
2023-04-22T04:37:09.240Z,8.13
2023-04-22T04:39:37.883Z,8.53
2023-04-22T04:42:06.416Z,8.10
2023-04-22T04:44:35.217Z,7.90
2023-04-22T04:47:04.006Z,9.17
2023-04-22T04:49:32.292Z,9.00
2023-04-22T04:52:01.992Z,8.80
2023-04-22T04:54:30.306Z,9.13
2023-04-22T04:56:58.525Z,9.27
2023-04-22T04:59:26.748Z,9.23
2023-04-22T05:01:55.038Z,10.07
2023-04-22T05:04:23.482Z,9.90
2023-04-22T05:06:51.801Z,9.20
2023-04-22T05:09:21.375Z,9.60
2023-04-22T05:11:49.601Z,9.23
2023-04-22T05:14:17.841Z,9.00
2023-04-22T05:16:46.200Z,8.90
2023-04-22T05:19:14.417Z,8.90
2023-04-22T05:21:42.609Z,9.57
2023-04-22T05:24:10.875Z,9.10
2023-04-22T05:26:40.665Z,9.50
2023-04-22T05:29:09.006Z,9.43
2023-04-22T05:31:37.300Z,11.20
2023-04-22T05:34:05.556Z,13.83
2023-04-22T05:36:33.820Z,9.63
2023-04-22T05:39:02.053Z,10.67
2023-04-22T05:41:30.307Z,13.93
2023-04-22T05:43:59.951Z,10.90
2023-04-22T05:46:28.163Z,11.93
2023-04-22T05:48:56.679Z,10.73
2023-04-22T05:51:24.870Z,12.70
2023-04-22T05:53:53.058Z,13.10
2023-04-22T05:56:22.134Z,12.00
2023-04-22T05:58:50.533Z,10.93
2023-04-22T06:01:20.138Z,10.40
2023-04-22T06:03:48.588Z,10.60
2023-04-22T06:06:17.090Z,9.50
2023-04-22T06:08:45.331Z,9.03
2023-04-22T06:11:13.506Z,9.23
2023-04-22T06:13:41.766Z,8.60
2023-04-22T06:16:10.546Z,9.53
2023-04-22T06:18:40.120Z,9.67
2023-04-22T06:21:08.345Z,10.63
2023-04-22T06:23:36.567Z,11.10
2023-04-22T06:26:05.275Z,9.87
2023-04-22T06:28:33.569Z,9.67
2023-04-22T06:31:01.967Z,10.17
2023-04-22T06:33:30.197Z,11.03
2023-04-22T06:36:02.752Z,10.73
2023-04-22T06:38:30.939Z,10.17
2023-04-22T06:40:59.130Z,11.10
2023-04-22T06:43:28.433Z,9.63
2023-04-22T06:45:56.711Z,9.70
2023-04-22T06:48:27.942Z,10.30
2023-04-22T06:50:57.325Z,9.60
2023-04-22T06:53:26.852Z,9.70
2023-04-22T06:55:55.493Z,10.23
2023-04-22T06:58:23.720Z,9.83
2023-04-22T07:00:51.902Z,10.23
2023-04-22T07:03:20.192Z,9.93
2023-04-22T07:05:49.061Z,9.73
2023-04-22T07:08:17.366Z,10.90
2023-04-22T07:10:47.156Z,10.13
2023-04-22T07:13:15.434Z,9.63
2023-04-22T07:15:43.611Z,9.17
2023-04-22T07:18:11.786Z,9.57
2023-04-22T07:20:40.026Z,10.97
2023-04-22T07:23:08.225Z,9.53
2023-04-22T07:25:36.413Z,10.13
2023-04-22T07:28:05.993Z,9.57
2023-04-22T07:30:34.238Z,10.23
2023-04-22T07:33:02.652Z,11.30
2023-04-22T07:35:31.601Z,9.50
2023-04-22T07:37:59.786Z,8.53
2023-04-22T07:40:27.971Z,8.70
2023-04-22T07:42:56.293Z,8.57
2023-04-22T07:45:25.819Z,8.83
2023-04-22T07:47:54.015Z,9.67
2023-04-22T07:50:22.292Z,9.67
2023-04-22T07:52:50.525Z,8.00
2023-04-22T07:55:18.790Z,7.60
2023-04-22T07:57:47.005Z,7.13
2023-04-22T08:00:16.124Z,7.93
2023-04-22T08:02:46.955Z,9.10
2023-04-22T08:05:15.353Z,7.47
2023-04-22T08:07:43.763Z,7.53
2023-04-22T08:10:12.250Z,7.30
2023-04-22T08:12:40.461Z,7.50
2023-04-22T08:15:09.156Z,8.40
2023-04-22T08:17:37.484Z,7.47
2023-04-22T08:20:08.198Z,7.07
2023-04-22T08:22:36.635Z,7.77
2023-04-22T08:25:04.927Z,7.50
2023-04-22T08:27:33.129Z,6.57
2023-04-22T08:30:01.448Z,6.70
2023-04-22T08:32:29.734Z,5.90
2023-04-22T08:35:04.365Z,6.45
2023-04-22T08:37:35.619Z,5.90
2023-04-22T08:40:05.061Z,5.93
2023-04-22T08:42:34.150Z,5.72
2023-04-22T08:45:03.918Z,5.43
2023-04-22T08:47:33.763Z,5.85
2023-04-22T08:50:03.442Z,6.65
2023-04-22T08:52:31.930Z,5.50
2023-04-22T08:55:02.055Z,4.43
2023-04-22T08:57:30.597Z,5.13
2023-04-22T08:59:58.877Z,5.65
2023-04-22T09:02:28.478Z,4.78
2023-04-22T09:04:56.751Z,4.28
2023-04-22T09:07:25.853Z,4.80
2023-04-22T09:09:54.767Z,4.20
2023-04-22T09:12:24.357Z,5.22
2023-04-22T09:14:52.874Z,4.55
2023-04-22T09:17:31.239Z,5.43
2023-04-22T09:20:00.188Z,4.78
2023-04-22T09:22:29.094Z,4.80
2023-04-22T09:24:57.374Z,4.43
2023-04-22T09:27:27.221Z,4.28
2023-04-22T09:29:55.411Z,5.50
2023-04-22T09:32:25.980Z,4.35
2023-04-22T09:34:54.777Z,4.55
2023-04-22T09:37:30.840Z,4.28
2023-04-22T09:40:05.000Z,4.40
2023-04-22T09:42:49.254Z,5.45
2023-04-22T09:45:26.341Z,4.40
2023-04-22T09:47:55.448Z,4.32
2023-04-22T09:50:23.768Z,4.20
2023-04-22T09:52:56.201Z,4.32
2023-04-22T09:55:25.026Z,5.13
2023-04-22T09:57:55.342Z,4.60
2023-04-22T10:00:25.116Z,3.97
2023-04-22T10:02:53.448Z,4.15
2023-04-22T10:05:21.712Z,4.05
2023-04-22T10:07:49.980Z,4.30
2023-04-22T10:10:18.263Z,4.85
2023-04-22T10:12:46.905Z,4.32
2023-04-22T10:15:16.563Z,4.22
2023-04-22T10:17:46.134Z,4.90
2023-04-22T10:20:18.095Z,4.47
2023-04-22T10:22:46.431Z,3.80
2023-04-22T10:25:15.358Z,4.40
2023-04-22T10:27:43.949Z,4.72
2023-04-22T10:30:12.901Z,3.88
2023-04-22T10:32:42.527Z,3.78
2023-04-22T10:35:12.206Z,4.30
2023-04-22T10:37:43.198Z,4.47
2023-04-22T10:40:13.886Z,4.82
2023-04-22T10:42:42.388Z,4.18
2023-04-22T10:45:14.853Z,3.85
2023-04-22T10:47:44.857Z,4.28
2023-04-22T10:50:18.358Z,4.32
2023-04-22T10:52:49.316Z,3.80
2023-04-22T10:55:17.741Z,3.78
2023-04-22T10:57:46.916Z,4.38
2023-04-22T11:00:49.790Z,3.97
2023-04-22T11:03:27.044Z,3.88
2023-04-22T11:06:10.324Z,4.00
2023-04-22T11:08:38.578Z,4.05
2023-04-22T11:11:10.585Z,3.88
2023-04-22T11:13:39.112Z,5.35
2023-04-22T11:16:09.932Z,4.95
2023-04-22T11:18:39.662Z,3.08
2023-04-22T11:21:09.302Z,2.97
2023-04-22T11:23:37.664Z,4.38
2023-04-22T11:26:06.562Z,2.50
2023-04-22T11:28:35.006Z,4.38
2023-04-22T11:31:04.164Z,3.85
2023-04-22T11:33:33.583Z,3.08
2023-04-22T11:36:03.363Z,3.20
2023-04-22T11:38:31.800Z,3.00
2023-04-22T11:41:00.023Z,6.35
2023-04-22T11:43:28.294Z,2.80
2023-04-22T11:45:57.971Z,3.17
2023-04-22T11:48:26.324Z,2.83
2023-04-22T11:51:10.111Z,4.03
2023-04-22T11:53:41.179Z,2.72
2023-04-22T11:56:09.442Z,3.08
2023-04-22T11:58:40.775Z,5.20
2023-04-22T12:01:13.957Z,3.80
2023-04-22T12:03:42.549Z,2.95
2023-04-22T12:06:11.151Z,3.45
2023-04-22T12:08:43.068Z,4.40
2023-04-22T12:11:11.921Z,2.50
2023-04-22T12:13:43.067Z,3.53
2023-04-22T12:16:13.095Z,2.58
2023-04-22T12:18:41.776Z,3.22
2023-04-22T12:21:10.708Z,3.42
2023-04-22T12:23:46.917Z,2.83
2023-04-22T12:26:15.707Z,4.18
2023-04-22T12:28:44.531Z,3.22
2023-04-22T12:31:12.983Z,3.05
2023-04-22T12:33:41.199Z,3.63
2023-04-22T12:36:09.490Z,3.45
2023-04-22T12:38:37.995Z,3.38
2023-04-22T12:41:08.207Z,2.63
2023-04-22T12:43:36.809Z,7.00
2023-04-22T12:46:05.371Z,3.17
2023-04-22T12:48:33.756Z,2.70
2023-04-22T12:51:01.965Z,2.80
2023-04-22T12:53:30.727Z,2.67
2023-04-22T12:55:59.084Z,4.07
2023-04-22T12:58:28.648Z,4.00
2023-04-22T13:00:56.879Z,3.03
2023-04-22T13:03:25.268Z,4.68
2023-04-22T13:05:53.960Z,4.20
2023-04-22T13:08:22.215Z,4.28
2023-04-22T13:10:50.568Z,3.95
2023-04-22T13:13:19.522Z,3.47
2023-04-22T13:15:53.172Z,5.40
2023-04-22T13:18:22.019Z,3.22
2023-04-22T13:20:51.158Z,4.55
2023-04-22T13:23:21.400Z,2.95
2023-04-22T13:25:49.674Z,3.38
2023-04-22T13:28:17.916Z,3.22
2023-04-22T13:30:46.206Z,5.07
2023-04-22T13:33:15.843Z,2.90
2023-04-22T13:35:47.206Z,3.53
2023-04-22T13:38:15.488Z,4.25
2023-04-22T13:40:43.750Z,3.38
2023-04-22T13:43:16.663Z,3.50
2023-04-22T13:45:44.945Z,3.95
2023-04-22T13:48:13.132Z,3.85
2023-04-22T13:50:42.856Z,3.38
2023-04-22T13:53:11.818Z,5.80
2023-04-22T13:55:40.776Z,5.03
2023-04-22T13:58:09.052Z,3.10
2023-04-22T14:00:37.351Z,3.40
2023-04-22T14:03:05.773Z,3.38
2023-04-22T14:05:34.273Z,3.00
2023-04-22T14:08:03.989Z,4.25
2023-04-22T14:10:32.237Z,3.88
2023-04-22T14:13:00.492Z,3.28
2023-04-22T14:15:28.739Z,3.33
2023-04-22T14:17:57.102Z,3.63
2023-04-22T14:20:26.104Z,3.83
2023-04-22T14:22:54.391Z,3.42
2023-04-22T14:25:24.009Z,4.07
2023-04-22T14:27:52.276Z,3.38
2023-04-22T14:30:21.824Z,3.13
2023-04-22T14:32:50.388Z,4.60
2023-04-22T14:35:19.473Z,5.47
2023-04-22T14:37:47.693Z,5.03
2023-04-22T14:40:16.644Z,4.43
2023-04-22T14:42:46.219Z,3.55
2023-04-22T14:45:14.683Z,5.68
2023-04-22T14:47:42.972Z,5.40
2023-04-22T14:50:11.545Z,3.85
2023-04-22T14:52:39.992Z,4.20
2023-04-22T14:55:19.416Z,3.60
2023-04-22T14:57:52.500Z,4.78
2023-04-22T15:00:20.888Z,5.43
2023-04-22T15:02:49.277Z,5.30
2023-04-22T15:05:17.549Z,3.70
2023-04-22T15:07:45.793Z,4.28
2023-04-22T15:10:14.299Z,5.35
2023-04-22T15:12:42.550Z,6.35
2023-04-22T15:15:13.860Z,5.35
2023-04-22T15:17:42.353Z,5.53
2023-04-22T15:20:11.058Z,4.03
2023-04-22T15:22:40.906Z,4.10
2023-04-22T15:25:09.831Z,5.95
2023-04-22T15:27:38.674Z,5.15
2023-04-22T15:30:07.970Z,4.97
2023-04-22T15:32:39.030Z,7.88
2023-04-22T15:35:08.054Z,6.75
2023-04-22T15:37:36.291Z,5.68
2023-04-22T15:40:05.858Z,5.85
2023-04-22T15:42:34.138Z,5.82
2023-04-22T15:45:03.987Z,5.85
2023-04-22T15:47:32.461Z,6.38
2023-04-22T15:50:06.475Z,4.95
2023-04-22T15:52:34.951Z,7.30
2023-04-22T15:55:03.224Z,5.68
2023-04-22T15:57:35.184Z,7.30
2023-04-22T16:00:11.040Z,4.43
2023-04-22T16:02:40.970Z,5.00
2023-04-22T16:05:11.318Z,8.00
2023-04-22T16:07:40.191Z,4.32
2023-04-22T16:10:09.365Z,3.13
2023-04-22T16:12:37.573Z,3.78
2023-04-22T16:15:06.770Z,2.28
2023-04-22T16:17:35.013Z,2.60
2023-04-22T16:20:04.082Z,3.28
2023-04-22T16:22:33.721Z,3.30
2023-04-22T16:25:01.973Z,3.15
2023-04-22T16:27:30.722Z,4.25
2023-04-22T16:29:59.008Z,3.15
2023-04-22T16:32:27.276Z,2.55
2023-04-22T16:34:55.852Z,2.60
2023-04-22T16:37:24.286Z,2.67
2023-04-22T16:39:53.867Z,3.65
2023-04-22T16:42:22.103Z,3.00
2023-04-22T16:44:51.381Z,3.17
2023-04-22T16:47:19.591Z,3.50
2023-04-22T16:49:47.852Z,3.13
2023-04-22T16:52:16.131Z,4.53
2023-04-22T16:54:44.383Z,3.67
2023-04-22T16:57:13.974Z,5.68
2023-04-22T16:59:42.403Z,3.92
2023-04-22T17:02:11.078Z,4.28
2023-04-22T17:04:39.740Z,4.13
2023-04-22T17:07:08.317Z,3.88
2023-04-22T17:09:38.715Z,4.20
2023-04-22T17:12:07.523Z,4.07
2023-04-22T17:14:39.905Z,4.13
2023-04-22T17:17:08.539Z,4.38
2023-04-22T17:19:37.529Z,4.40
2023-04-22T17:22:07.031Z,4.32
2023-04-22T17:24:35.643Z,4.25
2023-04-22T17:27:06.236Z,5.13
2023-04-22T17:29:35.694Z,4.28
2023-04-22T17:32:06.273Z,5.00
2023-04-22T17:34:34.914Z,3.97
2023-04-22T17:37:06.369Z,4.45
2023-04-22T17:39:34.961Z,4.15
2023-04-22T17:42:03.615Z,4.22
2023-04-22T17:44:34.195Z,4.50
2023-04-22T17:47:07.352Z,4.20
2023-04-22T17:49:42.031Z,7.30
2023-04-22T17:52:11.772Z,4.65
2023-04-22T17:54:40.460Z,4.70
2023-04-22T17:57:11.190Z,4.38
2023-04-22T17:59:40.099Z,6.05
2023-04-22T18:02:12.989Z,4.60
2023-04-22T18:04:46.379Z,4.75
2023-04-22T18:07:14.792Z,5.10
2023-04-22T18:09:44.371Z,7.32
2023-04-22T18:12:15.113Z,5.00
2023-04-22T18:14:43.628Z,9.50
2023-04-22T18:17:12.789Z,9.57
2023-04-22T18:19:41.827Z,6.57
2023-04-22T18:22:12.251Z,5.93
2023-04-22T18:24:41.116Z,7.70
2023-04-22T18:27:10.193Z,6.37
2023-04-22T18:29:38.900Z,6.10
2023-04-22T18:32:08.056Z,6.37
2023-04-22T18:34:36.670Z,6.00
2023-04-22T18:37:05.309Z,6.50
2023-04-22T18:39:35.331Z,5.57
2023-04-22T18:42:04.270Z,6.43
2023-04-22T18:44:32.841Z,5.97
2023-04-22T18:47:01.323Z,7.63
2023-04-22T18:49:34.623Z,6.40
2023-04-22T18:52:03.165Z,6.20
2023-04-22T18:54:31.955Z,6.57
2023-04-22T18:57:02.359Z,6.13
2023-04-22T18:59:30.952Z,5.57
2023-04-22T19:01:59.513Z,6.10
2023-04-22T19:04:28.282Z,6.03
2023-04-22T19:06:57.277Z,6.67
2023-04-22T19:09:26.150Z,7.03
2023-04-22T19:11:54.832Z,6.47
2023-04-22T19:14:24.850Z,5.73
2023-04-22T19:16:53.232Z,6.13
2023-04-22T19:19:21.705Z,6.20
2023-04-22T19:21:50.408Z,6.03
2023-04-22T19:24:18.982Z,6.10
2023-04-22T19:26:47.399Z,6.37
2023-04-22T19:29:17.038Z,6.37
2023-04-22T19:31:47.025Z,6.90
2023-04-22T19:34:15.578Z,6.87
2023-04-22T19:36:44.682Z,7.07
2023-04-22T19:39:13.220Z,7.40
2023-04-22T19:41:41.528Z,7.80
2023-04-22T19:44:10.220Z,8.17
2023-04-22T19:46:39.493Z,8.17
2023-04-22T19:49:09.919Z,8.07
2023-04-22T19:51:38.846Z,8.17
2023-04-22T19:54:08.388Z,8.10
2023-04-22T19:56:37.442Z,7.73
2023-04-22T19:59:07.362Z,8.60
2023-04-22T20:01:36.393Z,8.07
2023-04-22T20:04:05.282Z,8.63
2023-04-22T20:06:35.491Z,8.77
2023-04-22T20:09:05.706Z,7.93
2023-04-22T20:11:34.857Z,9.70
2023-04-22T20:14:03.989Z,7.63
2023-04-22T20:16:32.914Z,8.23
2023-04-22T20:19:01.722Z,7.97
2023-04-22T20:21:30.669Z,7.90
2023-04-22T20:24:01.174Z,7.27
2023-04-22T20:26:30.153Z,7.70
2023-04-22T20:28:59.099Z,8.33
2023-04-22T20:31:27.612Z,8.70
2023-04-22T20:33:57.264Z,7.70
2023-04-22T20:36:26.672Z,7.53
2023-04-22T20:38:58.292Z,6.70
2023-04-22T20:41:28.632Z,5.70
2023-04-22T20:43:57.615Z,6.03
2023-04-22T20:46:26.242Z,5.93
2023-04-22T20:48:54.997Z,6.17
2023-04-22T20:51:24.905Z,6.50
2023-04-22T20:53:55.111Z,7.30
2023-04-22T20:56:23.696Z,6.90
2023-04-22T20:58:53.782Z,7.63
2023-04-22T21:01:22.432Z,7.93
2023-04-22T21:03:53.283Z,8.47
2023-04-22T21:06:22.451Z,7.67
2023-04-22T21:08:51.542Z,6.40
2023-04-22T21:11:20.991Z,7.97
2023-04-22T21:13:50.024Z,6.40
2023-04-22T21:16:29.907Z,7.07
2023-04-22T21:19:00.714Z,6.83
2023-04-22T21:21:33.736Z,6.50
2023-04-22T21:24:02.764Z,6.73
2023-04-22T21:26:31.257Z,7.47
2023-04-22T21:29:00.464Z,7.53
2023-04-22T21:31:30.872Z,8.50
2023-04-22T21:34:00.578Z,8.87
2023-04-22T21:36:29.564Z,9.07
2023-04-22T21:38:58.607Z,9.20
2023-04-22T21:41:27.050Z,8.60
2023-04-22T21:43:55.747Z,9.53
2023-04-22T21:46:24.682Z,9.23
2023-04-22T21:48:54.699Z,9.60
2023-04-22T21:51:23.374Z,10.70
2023-04-22T21:53:51.843Z,11.67
2023-04-22T21:56:20.973Z,12.13
2023-04-22T21:58:49.418Z,13.33
2023-04-22T22:01:18.633Z,15.17
2023-04-22T22:03:47.354Z,15.00
2023-04-22T22:06:18.266Z,15.97
2023-04-22T22:08:47.114Z,16.83
2023-04-22T22:11:27.495Z,16.63
2023-04-22T22:13:59.254Z,16.13
2023-04-22T22:16:27.734Z,16.83
2023-04-22T22:18:57.855Z,20.03
2023-04-22T22:21:28.469Z,20.03
2023-04-22T22:23:58.259Z,21.90
2023-04-22T22:26:28.039Z,25.53
2023-04-22T22:28:56.611Z,25.43
2023-04-22T22:31:25.096Z,27.13
2023-04-22T22:33:53.820Z,26.80
2023-04-22T22:36:22.257Z,29.13
2023-04-22T22:38:52.118Z,31.20
2023-04-22T22:41:20.688Z,29.70
2023-04-22T22:43:49.223Z,29.77
2023-04-22T22:46:18.045Z,30.20
2023-04-22T22:48:46.499Z,31.43
2023-04-22T22:51:18.352Z,29.53
2023-04-22T22:53:47.234Z,31.20
2023-04-22T22:56:18.130Z,29.73
2023-04-22T22:58:48.576Z,30.70
2023-04-22T23:03:51.402Z,29.73
2023-04-22T23:06:19.783Z,30.07
2023-04-22T23:08:47.999Z,28.07
2023-04-22T23:11:17.603Z,28.47
2023-04-22T23:13:46.356Z,28.07
2023-04-22T23:16:14.738Z,27.10
2023-04-22T23:18:43.557Z,27.57
2023-04-22T23:21:12.422Z,26.23
2023-04-22T23:23:41.093Z,27.10
2023-04-22T23:26:09.963Z,26.67
2023-04-22T23:28:39.985Z,27.40
2023-04-22T23:31:08.572Z,28.20
2023-04-22T23:33:37.056Z,27.60
2023-04-22T23:36:07.106Z,28.57
2023-04-22T23:38:35.325Z,26.47
2023-04-22T23:41:03.570Z,27.37
2023-04-22T23:43:31.769Z,26.87
2023-04-22T23:46:01.326Z,25.77
2023-04-22T23:48:29.633Z,26.07
2023-04-22T23:50:57.899Z,26.37
2023-04-22T23:53:26.204Z,27.73
2023-04-22T23:55:54.702Z,26.17
2023-04-22T23:58:23.054Z,27.67
